Time;durP1;ratioP1;P1;durP2;ratioP2;P2;SDS_P1;SDS_P2;PMS_P1;PMS_P2;Temp;Humidity;BMP_temperature;BMP_pressure;BME280_temperature;BME280_humidity;BME280_pressure;Samples;Min_cycle;Max_cycle;Signal;HPM_P1;HPM_P2
2023/06/11 00:02:45;;;;;;;5.03;2.00;;;25.10;51.90;;;;;;6215436;28;20045;-72
2023/06/11 00:05:46;;;;;;;3.88;2.50;;;25.00;51.90;;;;;;6215794;28;20305;-71
2023/06/11 00:08:52;;;;;;;5.10;2.10;;;25.00;52.10;;;;;;6235309;28;20132;-71
2023/06/11 00:11:53;;;;;;;2.35;1.75;;;25.00;52.20;;;;;;6239911;28;20038;-72
2023/06/11 00:14:55;;;;;;;5.75;2.00;;;25.10;52.20;;;;;;6240432;28;20037;-72
2023/06/11 00:17:55;;;;;;;2.08;1.80;;;25.10;52.10;;;;;;6238752;28;20044;-71
2023/06/11 00:20:58;;;;;;;4.78;2.13;;;25.10;52.20;;;;;;6240218;28;20038;-73
2023/06/11 00:23:59;;;;;;;4.00;2.55;;;25.00;52.30;;;;;;6241973;28;20041;-71
2023/06/11 00:27:01;;;;;;;7.25;2.20;;;24.90;52.40;;;;;;6226810;28;20041;-73
2023/06/11 00:30:04;;;;;;;3.22;1.90;;;24.90;52.50;;;;;;6245169;28;20026;-72
2023/06/11 00:33:05;;;;;;;5.50;2.15;;;24.90;52.60;;;;;;6243726;28;20037;-73
2023/06/11 00:36:07;;;;;;;5.38;2.22;;;24.90;52.60;;;;;;6227147;28;20402;-71
2023/06/11 00:39:07;;;;;;;6.38;2.50;;;24.80;52.70;;;;;;6243390;28;20030;-71
2023/06/11 00:42:10;;;;;;;2.85;2.20;;;24.80;53.00;;;;;;6243074;28;20076;-71
2023/06/11 00:45:11;;;;;;;3.60;1.70;;;24.80;53.30;;;;;;6243076;28;20036;-71
2023/06/11 00:48:12;;;;;;;4.43;2.30;;;24.80;53.20;;;;;;6243286;28;20442;-72
2023/06/11 00:51:12;;;;;;;4.68;2.13;;;24.80;53.40;;;;;;6243025;28;20021;-72
2023/06/11 00:54:16;;;;;;;6.57;2.30;;;24.70;54.20;;;;;;6243019;28;20064;-71
2023/06/11 00:57:24;;;;;;;7.40;3.35;;;24.60;53.70;;;;;;6244640;28;20577;-72
2023/06/11 01:00:26;;;;;;;7.85;2.80;;;24.60;54.10;;;;;;6226201;28;20041;-71
2023/06/11 01:03:28;;;;;;;5.65;2.63;;;24.60;54.50;;;;;;6243481;28;20082;-71
2023/06/11 01:06:33;;;;;;;14.65;3.25;;;24.60;54.60;;;;;;6241590;28;20673;-71
2023/06/11 01:09:34;;;;;;;8.15;3.08;;;24.60;54.90;;;;;;6216939;28;20065;-71
2023/06/11 01:12:35;;;;;;;12.80;3.70;;;24.70;55.10;;;;;;6217301;28;20030;-71
2023/06/11 01:15:36;;;;;;;12.77;3.92;;;24.80;55.00;;;;;;6218903;28;20026;-71
2023/06/11 01:18:53;;;;;;;7.93;3.22;;;24.80;55.00;;;;;;6217066;28;20484;-71
2023/06/11 01:22:00;;;;;;;22.40;4.20;;;24.80;55.00;;;;;;6218201;28;20057;-70
2023/06/11 01:25:52;;;;;;;9.38;3.15;;;24.90;55.20;;;;;;6233153;28;20030;-72
2023/06/11 01:28:57;;;;;;;9.73;3.60;;;24.90;55.40;;;;;;6194643;28;20041;-72
2023/06/11 01:32:00;;;;;;;9.63;3.67;;;24.90;55.10;;;;;;6216413;28;20030;-71
2023/06/11 01:35:02;;;;;;;13.55;3.90;;;24.90;55.30;;;;;;6216493;28;20148;-71
2023/06/11 01:38:09;;;;;;;6.88;3.38;;;24.90;55.40;;;;;;6217088;28;20531;-70
2023/06/11 01:41:30;;;;;;;10.88;3.42;;;24.90;55.50;;;;;;6239945;28;20050;-72
2023/06/11 01:44:32;;;;;;;10.52;2.92;;;24.90;55.50;;;;;;6241253;28;20256;-71
2023/06/11 01:47:33;;;;;;;8.13;2.50;;;24.90;55.20;;;;;;6241251;28;20046;-70
2023/06/11 01:50:36;;;;;;;8.82;2.50;;;24.80;55.00;;;;;;6224793;28;20025;-70
2023/06/11 01:53:37;;;;;;;3.22;1.83;;;24.70;54.80;;;;;;6240415;28;20034;-71
2023/06/11 01:56:38;;;;;;;4.03;2.55;;;24.60;54.70;;;;;;6224460;28;20469;-70
2023/06/11 01:59:39;;;;;;;4.82;1.83;;;24.50;54.60;;;;;;6240899;28;20075;-71
2023/06/11 02:02:41;;;;;;;4.65;2.60;;;24.40;54.60;;;;;;6223782;28;20029;-70
2023/06/11 02:05:45;;;;;;;4.95;2.13;;;24.40;54.70;;;;;;6242001;28;20041;-71
2023/06/11 02:08:46;;;;;;;3.30;1.92;;;24.30;54.60;;;;;;6242036;28;20018;-70
2023/06/11 02:11:47;;;;;;;6.32;2.45;;;24.30;54.60;;;;;;6241483;28;20547;-71
2023/06/11 02:14:48;;;;;;;4.28;2.00;;;24.30;54.60;;;;;;6240250;28;20069;-71
2023/06/11 02:17:49;;;;;;;2.67;2.15;;;24.20;54.60;;;;;;6240227;28;20033;-71
2023/06/11 02:20:50;;;;;;;2.70;2.22;;;24.10;54.60;;;;;;6242087;28;20032;-71
2023/06/11 02:23:52;;;;;;;4.72;2.15;;;24.10;54.70;;;;;;6239757;28;20191;-71
2023/06/11 02:26:52;;;;;;;3.72;2.08;;;24.00;54.90;;;;;;6241334;28;20111;-71
2023/06/11 02:29:55;;;;;;;4.80;1.95;;;24.00;55.00;;;;;;6239977;28;20041;-71
2023/06/11 02:32:55;;;;;;;8.10;2.47;;;24.00;55.20;;;;;;6223205;28;20056;-71
2023/06/11 02:35:56;;;;;;;4.20;2.95;;;23.90;55.30;;;;;;6239731;28;20033;-70
2023/06/11 02:38:57;;;;;;;4.90;2.58;;;23.90;55.50;;;;;;6240891;28;20076;-72
2023/06/11 02:41:58;;;;;;;6.85;2.97;;;23.80;55.60;;;;;;6239400;28;20033;-70
2023/06/11 02:44:59;;;;;;;2.80;2.33;;;23.80;55.70;;;;;;6223265;28;20526;-71
2023/06/11 02:48:00;;;;;;;5.32;2.58;;;23.80;55.80;;;;;;6239111;28;20029;-71
2023/06/11 02:51:00;;;;;;;5.35;2.22;;;23.70;55.80;;;;;;6241123;28;20029;-71
2023/06/11 02:54:02;;;;;;;3.10;2.28;;;23.70;55.90;;;;;;6238852;28;20099;-71
2023/06/11 02:57:03;;;;;;;5.07;2.38;;;23.70;55.90;;;;;;6239136;28;20042;-71
2023/06/11 03:00:05;;;;;;;4.72;2.22;;;23.70;55.90;;;;;;6240421;28;20605;-71
2023/06/11 03:03:06;;;;;;;5.40;2.40;;;23.70;55.80;;;;;;6238525;28;20204;-71
2023/06/11 03:06:13;;;;;;;3.97;2.13;;;23.60;55.80;;;;;;6238423;28;20033;-71
2023/06/11 03:09:14;;;;;;;5.53;2.47;;;23.60;55.80;;;;;;6238868;28;20052;-71
2023/06/11 03:12:15;;;;;;;4.85;2.70;;;23.50;55.90;;;;;;6238026;28;20044;-71
2023/06/11 03:15:16;;;;;;;9.23;2.17;;;23.50;56.10;;;;;;6238635;28;20034;-70
2023/06/11 03:18:17;;;;;;;5.35;2.47;;;23.50;56.20;;;;;;6238610;28;20545;-70
2023/06/11 03:21:18;;;;;;;5.00;2.70;;;23.40;56.30;;;;;;6238683;28;20121;-71
2023/06/11 03:24:19;;;;;;;3.13;2.13;;;23.40;56.40;;;;;;6238207;28;20053;-71
2023/06/11 03:27:20;;;;;;;4.97;2.25;;;23.40;56.50;;;;;;6238490;28;20026;-71
2023/06/11 03:30:21;;;;;;;3.90;2.28;;;23.40;56.50;;;;;;6238485;28;20025;-71
2023/06/11 03:33:23;;;;;;;7.43;2.60;;;23.40;56.60;;;;;;6237617;28;20115;-71
2023/06/11 03:36:23;;;;;;;2.92;2.60;;;23.40;56.60;;;;;;6238332;28;20041;-71
2023/06/11 03:39:25;;;;;;;5.68;2.47;;;23.30;56.60;;;;;;6238409;28;20086;-70
2023/06/11 03:42:30;;;;;;;3.47;2.20;;;23.30;56.60;;;;;;6237765;28;20204;-71
2023/06/11 03:45:31;;;;;;;2.60;2.30;;;23.30;56.50;;;;;;6238200;28;20164;-71
2023/06/11 03:48:33;;;;;;;4.30;2.47;;;23.40;56.50;;;;;;6238192;28;20025;-71
2023/06/11 03:51:34;;;;;;;4.35;2.30;;;23.40;56.50;;;;;;6237772;28;20488;-71
2023/06/11 03:54:35;;;;;;;4.28;2.42;;;23.60;56.50;;;;;;6237750;28;20056;-70
2023/06/11 03:57:36;;;;;;;9.02;2.53;;;23.40;56.40;;;;;;6236990;28;20365;-71
2023/06/11 04:00:37;;;;;;;3.60;2.30;;;23.40;56.30;;;;;;6237724;28;20033;-71
2023/06/11 04:03:38;;;;;;;6.85;2.13;;;23.40;56.30;;;;;;6237583;28;20899;-70
2023/06/11 04:06:40;;;;;;;3.97;2.60;;;23.40;56.20;;;;;;6253970;28;20339;-70
2023/06/11 04:09:42;;;;;;;6.95;2.92;;;23.50;56.20;;;;;;6238113;28;20044;-71
2023/06/11 04:12:42;;;;;;;2.90;1.95;;;23.50;56.20;;;;;;6253684;28;20029;-71
2023/06/11 04:15:45;;;;;;;3.72;2.25;;;23.50;56.70;;;;;;6237424;28;20619;-71
2023/06/11 04:18:47;;;;;;;4.35;2.38;;;23.40;56.00;;;;;;6254030;28;20041;-71
2023/06/11 04:21:48;;;;;;;5.20;2.78;;;23.50;56.00;;;;;;6237360;28;20496;-71
2023/06/11 04:24:49;;;;;;;2.92;2.25;;;23.50;56.00;;;;;;6238660;28;20037;-72
2023/06/11 04:27:52;;;;;;;5.85;1.85;;;23.50;55.90;;;;;;6238965;28;20036;-71
2023/06/11 04:30:57;;;;;;;7.75;2.30;;;23.50;55.80;;;;;;6253876;28;20041;-72
2023/06/11 04:34:06;;;;;;;2.97;2.13;;;23.50;55.80;;;;;;6237613;28;20095;-70
2023/06/11 04:37:09;;;;;;;2.22;1.67;;;23.50;55.80;;;;;;6237520;28;20064;-71
2023/06/11 04:40:11;;;;;;;4.35;2.47;;;23.50;55.80;;;;;;6221511;28;20033;-72
2023/06/11 04:43:12;;;;;;;3.88;2.05;;;23.50;55.80;;;;;;6238622;28;20419;-71
2023/06/11 04:46:13;;;;;;;3.42;2.17;;;23.50;55.80;;;;;;6237171;28;20038;-71
2023/06/11 04:49:20;;;;;;;3.33;2.45;;;23.50;55.90;;;;;;6237572;28;20041;-70
2023/06/11 04:52:22;;;;;;;4.55;2.15;;;23.50;56.00;;;;;;6237134;28;20029;-70
2023/06/11 04:55:24;;;;;;;4.32;2.30;;;23.50;56.00;;;;;;6237244;28;20037;-71
2023/06/11 04:58:27;;;;;;;10.60;2.20;;;23.50;56.20;;;;;;6236894;28;20122;-72
2023/06/11 05:01:30;;;;;;;3.80;2.30;;;23.40;56.20;;;;;;6236879;28;20067;-71
2023/06/11 05:04:31;;;;;;;6.35;2.55;;;23.40;56.20;;;;;;6237218;28;20754;-69
2023/06/11 05:07:33;;;;;;;3.60;2.47;;;23.40;56.80;;;;;;6238706;28;20144;-70
2023/06/11 05:10:34;;;;;;;4.10;2.45;;;23.40;56.30;;;;;;6218035;28;20041;-70
2023/06/11 05:13:37;;;;;;;2.90;2.13;;;23.40;56.30;;;;;;6217085;28;20127;-70
2023/06/11 05:16:40;;;;;;;4.32;2.55;;;23.40;56.20;;;;;;6217534;28;20035;-70
2023/06/11 05:19:41;;;;;;;4.22;2.72;;;23.50;56.20;;;;;;6218783;28;20034;-70
2023/06/11 05:22:42;;;;;;;3.15;2.20;;;23.50;56.20;;;;;;6216756;28;20052;-71
2023/06/11 05:25:46;;;;;;;3.20;2.30;;;23.60;56.10;;;;;;6221277;28;20041;-71
2023/06/11 05:28:49;;;;;;;4.35;2.08;;;23.60;55.90;;;;;;6241063;28;20127;-70
2023/06/11 05:31:51;;;;;;;3.33;2.45;;;23.70;55.80;;;;;;6224881;28;20586;-71
2023/06/11 05:34:52;;;;;;;4.25;2.25;;;23.70;55.70;;;;;;6242858;28;20045;-71
2023/06/11 05:37:57;;;;;;;4.50;2.22;;;23.70;55.70;;;;;;6241490;28;20120;-70
2023/06/11 05:40:59;;;;;;;3.75;2.38;;;23.80;55.60;;;;;;6257472;28;20107;-73
2023/06/11 05:44:00;;;;;;;2.65;2.08;;;23.90;55.50;;;;;;6241348;28;20120;-71
2023/06/11 05:47:01;;;;;;;4.32;2.50;;;24.00;55.60;;;;;;6241604;28;20485;-71
2023/06/11 05:50:03;;;;;;;9.65;2.40;;;24.10;55.30;;;;;;6241271;28;20109;-71
2023/06/11 05:53:09;;;;;;;3.08;2.38;;;24.20;55.10;;;;;;6240649;28;20658;-70
2023/06/11 05:56:11;;;;;;;4.28;2.70;;;24.10;55.00;;;;;;6241395;28;20040;-72
2023/06/11 05:59:13;;;;;;;12.07;2.78;;;24.30;55.00;;;;;;6225269;28;20128;-71
2023/06/11 06:02:14;;;;;;;6.85;2.70;;;24.40;55.00;;;;;;6241287;28;20041;-72
2023/06/11 06:05:15;;;;;;;5.38;3.03;;;24.50;54.90;;;;;;6241145;28;20036;-71
2023/06/11 06:08:16;;;;;;;6.20;2.70;;;24.50;54.80;;;;;;6219479;28;20036;-71
2023/06/11 06:11:17;;;;;;;12.35;3.35;;;24.60;54.70;;;;;;6240920;28;20033;-71
2023/06/11 06:14:19;;;;;;;13.70;2.72;;;24.70;54.50;;;;;;6241256;28;20037;-71
2023/06/11 06:17:21;;;;;;;14.30;2.70;;;24.80;54.40;;;;;;6241246;28;20125;-71
2023/06/11 06:20:22;;;;;;;4.10;2.85;;;24.80;54.30;;;;;;6240600;28;20037;-71
2023/06/11 06:23:23;;;;;;;12.70;3.45;;;25.00;54.20;;;;;;6239464;28;20043;-71
2023/06/11 06:26:31;;;;;;;5.05;3.05;;;24.90;54.10;;;;;;6224945;28;20118;-71
2023/06/11 06:29:33;;;;;;;11.73;2.70;;;25.00;54.00;;;;;;6240238;28;20034;-71
2023/06/11 06:32:36;;;;;;;7.07;3.33;;;25.10;53.90;;;;;;6239866;28;20057;-70
2023/06/11 06:35:39;;;;;;;8.82;3.03;;;25.20;53.80;;;;;;6223789;28;20044;-71
2023/06/11 06:38:40;;;;;;;5.13;2.78;;;25.20;53.80;;;;;;6240353;28;20104;-71
2023/06/11 06:41:42;;;;;;;7.85;3.25;;;25.20;53.80;;;;;;6240076;28;20052;-71
2023/06/11 06:44:46;;;;;;;10.40;3.05;;;25.30;53.70;;;;;;6240020;28;20095;-70
2023/06/11 06:47:48;;;;;;;13.00;3.15;;;25.50;53.70;;;;;;6240088;28;20386;-71
2023/06/11 06:50:50;;;;;;;7.35;2.55;;;25.60;53.40;;;;;;6239885;28;20029;-71
2023/06/11 06:53:51;;;;;;;6.10;2.95;;;25.80;53.10;;;;;;6239725;28;20121;-70
2023/06/11 06:56:52;;;;;;;4.00;2.70;;;25.90;52.80;;;;;;6239287;28;20036;-70
2023/06/11 06:59:53;;;;;;;3.70;2.78;;;26.10;52.40;;;;;;6239806;28;20174;-70
2023/06/11 07:02:55;;;;;;;5.60;2.85;;;26.20;52.10;;;;;;6239126;28;20559;-71
2023/06/11 07:05:56;;;;;;;4.35;2.55;;;26.20;51.70;;;;;;6240967;28;20021;-72
2023/06/11 07:08:56;;;;;;;7.30;2.55;;;26.20;51.70;;;;;;6218517;28;20092;-71
2023/06/11 07:11:58;;;;;;;8.60;3.22;;;26.20;52.30;;;;;;6214487;28;20026;-71
2023/06/11 07:14:59;;;;;;;6.85;2.70;;;26.30;51.70;;;;;;6214657;28;20033;-70
2023/06/11 07:18:00;;;;;;;4.20;2.80;;;26.50;52.00;;;;;;6217362;28;20056;-70
2023/06/11 07:21:02;;;;;;;157.88;8.98;;;26.60;51.10;;;;;;6240551;28;20021;-70
2023/06/11 07:24:04;;;;;;;4.38;2.90;;;26.70;50.90;;;;;;6238553;28;20053;-71
2023/06/11 07:27:06;;;;;;;18.63;3.70;;;26.80;50.80;;;;;;6238718;28;20045;-70
2023/06/11 07:30:08;;;;;;;7.22;3.10;;;26.90;50.70;;;;;;6222663;28;20134;-70
2023/06/11 07:33:10;;;;;;;12.45;2.75;;;27.10;50.60;;;;;;6254761;28;20033;-71
2023/06/11 07:36:11;;;;;;;6.13;2.20;;;27.20;50.30;;;;;;6240473;28;20034;-70
2023/06/11 07:39:12;;;;;;;3.72;2.65;;;27.40;50.20;;;;;;6222224;28;20090;-70
2023/06/11 07:42:13;;;;;;;5.55;2.60;;;27.40;50.00;;;;;;6254904;28;20035;-70
2023/06/11 07:45:15;;;;;;;4.18;2.60;;;27.60;49.90;;;;;;6238349;28;20528;-69
2023/06/11 07:48:16;;;;;;;5.70;2.80;;;27.70;49.70;;;;;;6238803;28;20048;-71
2023/06/11 07:51:20;;;;;;;7.63;2.83;;;27.70;49.50;;;;;;6238833;28;20030;-71
2023/06/11 07:54:21;;;;;;;3.25;2.45;;;27.80;49.40;;;;;;6238630;28;20116;-71
2023/06/11 07:57:22;;;;;;;3.47;2.42;;;27.90;49.30;;;;;;6238734;28;20025;-70
2023/06/11 08:00:24;;;;;;;8.02;2.30;;;27.90;49.10;;;;;;6239945;28;20112;-70
2023/06/11 08:03:25;;;;;;;4.22;2.67;;;28.00;49.00;;;;;;6239646;28;20508;-70
2023/06/11 08:06:26;;;;;;;4.72;2.20;;;28.00;48.90;;;;;;6238756;28;20030;-72
2023/06/11 08:09:27;;;;;;;3.30;2.30;;;28.00;48.90;;;;;;6238994;28;20746;-69
2023/06/11 08:12:28;;;;;;;2.85;2.20;;;27.90;48.80;;;;;;6240014;28;20030;-71
2023/06/11 08:15:30;;;;;;;2.97;2.20;;;27.80;49.10;;;;;;6240170;28;20033;-70
2023/06/11 08:18:31;;;;;;;3.60;2.28;;;27.60;49.50;;;;;;6239023;28;20524;-69
2023/06/11 08:21:31;;;;;;;3.70;2.03;;;27.70;49.60;;;;;;6239912;28;20037;-69
2023/06/11 08:24:32;;;;;;;5.82;2.45;;;27.70;49.50;;;;;;6240145;28;20033;-68
2023/06/11 08:27:33;;;;;;;2.97;2.20;;;27.80;49.30;;;;;;6239873;28;20513;-69
2023/06/11 08:30:34;;;;;;;3.00;2.35;;;28.00;49.20;;;;;;6240023;28;20049;-70
2023/06/11 08:33:35;;;;;;;4.80;2.38;;;28.10;48.70;;;;;;6239652;28;20030;-69
2023/06/11 08:36:36;;;;;;;2.83;2.38;;;28.30;48.50;;;;;;6240300;28;20060;-68
2023/06/11 08:39:37;;;;;;;5.53;2.30;;;28.40;48.90;;;;;;6222173;28;20083;-69
2023/06/11 08:42:38;;;;;;;3.88;2.53;;;28.50;48.10;;;;;;6237963;28;20425;-70
2023/06/11 08:45:39;;;;;;;4.13;2.63;;;28.50;47.60;;;;;;6243030;28;20116;-70
2023/06/11 08:48:44;;;;;;;5.47;2.75;;;28.70;47.30;;;;;;6245045;28;20029;-68
2023/06/11 08:51:47;;;;;;;2.78;2.17;;;28.90;47.30;;;;;;6244048;28;20022;-70
2023/06/11 08:54:48;;;;;;;2.53;2.33;;;29.10;46.80;;;;;;6244516;28;20532;-68
2023/06/11 08:57:50;;;;;;;5.93;2.65;;;29.30;46.40;;;;;;6244456;28;20029;-70
2023/06/11 09:00:51;;;;;;;4.05;2.33;;;29.40;46.00;;;;;;6242998;28;20041;-69
2023/06/11 09:03:52;;;;;;;3.47;2.17;;;29.40;45.80;;;;;;6243319;28;20053;-72
2023/06/11 09:06:58;;;;;;;5.45;2.20;;;29.50;45.70;;;;;;6243541;28;20532;-72
2023/06/11 09:10:10;;;;;;;5.07;2.40;;;29.50;45.60;;;;;;6227830;28;20035;-71
2023/06/11 09:13:10;;;;;;;2.53;2.17;;;29.60;45.40;;;;;;6245644;28;20117;-71
2023/06/11 09:16:11;;;;;;;3.53;2.38;;;29.80;45.30;;;;;;6243921;28;20033;-72
2023/06/11 09:19:15;;;;;;;2.67;2.13;;;30.00;45.10;;;;;;6245335;28;20037;-73
2023/06/11 09:22:25;;;;;;;2.67;1.88;;;29.90;44.90;;;;;;6243387;28;20033;-72
2023/06/11 09:25:31;;;;;;;4.82;2.20;;;29.90;44.90;;;;;;6244206;28;20473;-71
2023/06/11 09:28:36;;;;;;;5.32;2.30;;;29.80;44.80;;;;;;6236425;28;20079;-72
2023/06/11 09:31:39;;;;;;;3.15;1.92;;;29.90;44.80;;;;;;6245598;28;20022;-72
2023/06/11 09:34:41;;;;;;;3.42;2.00;;;29.90;44.80;;;;;;6243961;28;20021;-72
2023/06/11 09:37:47;;;;;;;4.53;2.20;;;29.80;44.70;;;;;;6226560;28;20041;-72
2023/06/11 09:40:49;;;;;;;5.30;1.98;;;29.80;44.70;;;;;;6244529;28;20316;-72
2023/06/11 09:43:52;;;;;;;2.20;1.88;;;29.80;44.60;;;;;;6244752;28;20810;-72
2023/06/11 09:46:53;;;;;;;6.97;2.03;;;29.80;44.70;;;;;;6246584;28;20132;-73
2023/06/11 09:49:56;;;;;;;6.05;2.15;;;29.70;44.60;;;;;;6243553;28;20504;-74
2023/06/11 09:52:59;;;;;;;2.33;2.10;;;29.80;44.70;;;;;;6241785;28;20061;-72
2023/06/11 09:56:00;;;;;;;2.75;1.95;;;29.80;44.60;;;;;;6240764;28;20666;-71
2023/06/11 09:59:02;;;;;;;5.55;2.38;;;29.80;44.50;;;;;;6242855;28;20025;-71
2023/06/11 10:02:04;;;;;;;4.72;2.08;;;29.80;44.50;;;;;;6242987;28;20308;-72
2023/06/11 10:05:07;;;;;;;4.13;2.08;;;29.80;44.50;;;;;;6242448;28;20105;-76
2023/06/11 10:08:22;;;;;;;3.20;2.28;;;29.80;44.70;;;;;;6240403;28;20405;-72
2023/06/11 10:11:24;;;;;;;3.28;2.22;;;29.80;44.80;;;;;;6241369;28;20713;-73
2023/06/11 10:14:25;;;;;;;5.13;2.05;;;29.90;44.80;;;;;;6224338;28;20109;-70
2023/06/11 10:17:26;;;;;;;8.40;2.35;;;29.90;45.50;;;;;;6242297;28;20034;-70
2023/06/11 10:20:35;;;;;;;3.67;2.13;;;29.80;44.80;;;;;;6231819;28;20445;-71
2023/06/11 10:23:40;;;;;;;4.43;2.50;;;29.90;45.00;;;;;;6242580;28;20791;-71
2023/06/11 10:26:41;;;;;;;4.15;2.33;;;29.90;45.00;;;;;;6234104;28;21625;-68
2023/06/11 10:29:47;;;;;;;6.53;2.10;;;29.90;45.10;;;;;;6241734;28;20029;-69
2023/06/11 10:32:49;;;;;;;2.53;2.13;;;29.80;45.20;;;;;;6241244;28;20045;-70
2023/06/11 10:35:51;;;;;;;5.82;1.90;;;29.90;45.20;;;;;;6240315;28;20121;-71
2023/06/11 10:39:03;;;;;;;2.60;2.03;;;29.90;45.20;;;;;;6223812;28;20089;-71
2023/06/11 10:42:05;;;;;;;2.10;1.90;;;29.80;45.20;;;;;;6238846;28;20036;-70
2023/06/11 10:45:08;;;;;;;2.17;1.88;;;29.90;45.50;;;;;;6241594;28;20037;-70
2023/06/11 10:48:11;;;;;;;3.40;1.98;;;29.90;45.40;;;;;;6239262;28;20064;-71
2023/06/11 10:51:13;;;;;;;5.88;2.30;;;29.90;45.40;;;;;;6238949;28;20030;-70
2023/06/11 10:54:24;;;;;;;3.08;2.20;;;30.00;45.50;;;;;;6240937;28;20449;-69
2023/06/11 10:57:25;;;;;;;2.20;2.00;;;29.90;45.50;;;;;;6239306;28;20029;-70
2023/06/11 11:00:32;;;;;;;4.05;2.00;;;30.00;45.50;;;;;;6239165;28;20081;-68
2023/06/11 11:03:34;;;;;;;2.95;2.05;;;30.00;45.50;;;;;;6240302;28;20080;-68
2023/06/11 11:06:38;;;;;;;9.85;3.20;;;30.40;45.00;;;;;;6238736;28;20087;-70
2023/06/11 11:09:39;;;;;;;10.68;2.15;;;31.30;43.60;;;;;;6240530;28;20018;-69
2023/06/11 11:12:41;;;;;;;4.38;2.10;;;32.20;42.10;;;;;;6238494;28;20418;-68
2023/06/11 11:15:42;;;;;;;8.20;2.17;;;32.90;40.80;;;;;;6239458;28;20121;-69
2023/06/11 11:18:43;;;;;;;2.47;2.20;;;33.50;39.60;;;;;;6240557;28;20358;-69
2023/06/11 11:21:51;;;;;;;5.55;2.10;;;34.00;38.50;;;;;;6238548;28;20041;-68
2023/06/11 11:24:51;;;;;;;4.85;2.67;;;34.40;37.40;;;;;;6240357;28;20037;-68
2023/06/11 11:27:52;;;;;;;5.07;2.22;;;34.80;37.00;;;;;;6240043;28;20041;-68
2023/06/11 11:30:54;;;;;;;3.65;2.28;;;35.00;36.50;;;;;;6238483;28;20034;-69
2023/06/11 11:33:55;;;;;;;9.90;2.50;;;35.20;36.10;;;;;;6239060;28;20038;-69
2023/06/11 11:36:56;;;;;;;2.58;2.30;;;35.20;36.00;;;;;;6238551;28;20033;-68
2023/06/11 11:40:06;;;;;;;3.10;2.00;;;35.30;35.80;;;;;;6240247;28;20033;-69
2023/06/11 11:43:14;;;;;;;2.22;2.00;;;35.50;35.70;;;;;;6238327;28;20120;-68
2023/06/11 11:46:23;;;;;;;4.55;2.40;;;35.80;35.30;;;;;;6240216;28;20034;-69
2023/06/11 11:49:34;;;;;;;3.63;1.85;;;36.00;34.70;;;;;;6239617;28;20104;-68
2023/06/11 11:52:37;;;;;;;3.50;2.35;;;36.10;34.40;;;;;;6239579;28;20064;-69
2023/06/11 11:55:40;;;;;;;3.42;2.40;;;36.20;34.20;;;;;;6237847;28;20033;-70
2023/06/11 11:58:42;;;;;;;10.13;2.30;;;36.30;34.00;;;;;;6239502;28;20068;-69
2023/06/11 12:01:54;;;;;;;2.60;1.77;;;36.30;34.10;;;;;;6236836;28;20037;-69
2023/06/11 12:05:00;;;;;;;3.22;2.30;;;36.50;33.80;;;;;;6239045;28;20041;-69
2023/06/11 12:08:02;;;;;;;2.50;2.20;;;36.60;33.30;;;;;;6239155;28;20040;-68
2023/06/11 12:11:06;;;;;;;4.75;2.28;;;36.70;33.20;;;;;;6239688;28;20029;-68
2023/06/11 12:14:07;;;;;;;4.18;2.10;;;36.90;32.90;;;;;;6238925;28;20109;-69
2023/06/11 12:17:10;;;;;;;2.45;2.25;;;36.90;32.70;;;;;;6238201;28;20029;-69
2023/06/11 12:20:12;;;;;;;2.92;2.33;;;37.00;32.40;;;;;;6242190;28;20026;-69
2023/06/11 12:23:13;;;;;;;5.30;2.25;;;37.10;32.40;;;;;;6226240;28;20385;-68
2023/06/11 12:26:15;;;;;;;6.93;2.15;;;37.30;31.70;;;;;;6244905;28;20588;-71
2023/06/11 12:29:16;;;;;;;6.93;2.38;;;37.50;31.60;;;;;;6244557;28;20029;-69
2023/06/11 12:32:18;;;;;;;3.50;2.45;;;37.50;30.90;;;;;;6244540;28;20461;-70
2023/06/11 12:35:19;;;;;;;3.80;2.42;;;37.50;30.70;;;;;;6244585;28;20103;-69
2023/06/11 12:38:20;;;;;;;3.28;2.28;;;37.50;30.60;;;;;;6242608;28;20049;-68
2023/06/11 12:41:21;;;;;;;2.97;2.50;;;37.50;30.60;;;;;;6243797;28;20155;-69
2023/06/11 12:44:22;;;;;;;4.07;2.30;;;37.50;30.50;;;;;;6225864;28;20033;-68
2023/06/11 12:47:23;;;;;;;3.72;2.60;;;37.50;30.10;;;;;;6244103;28;20040;-70
2023/06/11 12:50:24;;;;;;;4.05;2.30;;;37.60;30.00;;;;;;6244412;28;20057;-69
2023/06/11 12:53:26;;;;;;;6.93;3.22;;;37.80;29.80;;;;;;6243920;28;20112;-70
2023/06/11 12:56:27;;;;;;;4.28;2.65;;;37.80;29.70;;;;;;6242265;28;20049;-69
2023/06/11 12:59:28;;;;;;;2.63;2.28;;;37.80;29.60;;;;;;6243625;28;20033;-70
2023/06/11 13:02:29;;;;;;;8.07;2.78;;;37.90;29.40;;;;;;6243581;28;20067;-69
2023/06/11 13:05:30;;;;;;;7.55;2.90;;;38.10;29.20;;;;;;6240491;28;20075;-70
2023/06/11 13:08:31;;;;;;;3.55;2.67;;;38.20;29.40;;;;;;6225825;28;20037;-71
2023/06/11 13:11:32;;;;;;;5.05;2.60;;;37.90;29.00;;;;;;6242500;28;20112;-71
2023/06/11 13:14:33;;;;;;;4.75;2.83;;;38.00;29.00;;;;;;6242565;28;20026;-74
2023/06/11 13:17:34;;;;;;;5.53;2.70;;;38.40;28.60;;;;;;6244249;28;20041;-70
2023/06/11 13:20:35;;;;;;;3.83;2.97;;;38.90;28.00;;;;;;6242053;28;20030;-70
2023/06/11 13:23:36;;;;;;;3.50;2.55;;;39.30;27.60;;;;;;6243175;28;20026;-70
2023/06/11 13:26:37;;;;;;;5.10;2.70;;;39.80;27.10;;;;;;6258376;28;20038;-71
2023/06/11 13:29:38;;;;;;;5.32;2.65;;;40.20;26.60;;;;;;6243393;28;20049;-70
2023/06/11 13:32:39;;;;;;;3.67;2.50;;;40.50;26.40;;;;;;6243362;28;20163;-71
2023/06/11 13:35:40;;;;;;;4.45;2.65;;;41.00;25.90;;;;;;6243865;28;20488;-72
2023/06/11 13:38:41;;;;;;;6.85;2.60;;;41.70;25.50;;;;;;6243863;28;20080;-68
2023/06/11 13:41:42;;;;;;;3.83;2.85;;;42.20;24.90;;;;;;6243639;28;20117;-70
2023/06/11 13:44:43;;;;;;;3.88;2.80;;;42.60;24.90;;;;;;6243931;28;20029;-71
2023/06/11 13:47:44;;;;;;;9.10;3.13;;;42.50;24.40;;;;;;6243454;28;20132;-72
2023/06/11 13:50:48;;;;;;;4.88;2.90;;;42.60;24.50;;;;;;6243419;28;20068;-70
2023/06/11 13:53:49;;;;;;;3.35;2.80;;;42.90;23.90;;;;;;6241221;28;20520;-70
2023/06/11 13:56:50;;;;;;;2.63;2.40;;;42.90;23.90;;;;;;6241899;28;20037;-71
2023/06/11 13:59:51;;;;;;;5.05;2.70;;;42.90;23.70;;;;;;6243043;28;20374;-70
2023/06/11 14:02:51;;;;;;;3.10;2.65;;;43.10;23.60;;;;;;6242882;28;20029;-71
2023/06/11 14:05:52;;;;;;;4.38;2.65;;;43.60;23.10;;;;;;6242829;28;20059;-70
2023/06/11 14:08:53;;;;;;;2.97;2.67;;;43.80;22.80;;;;;;6242440;28;20144;-71
2023/06/11 14:11:54;;;;;;;4.18;2.63;;;43.80;22.70;;;;;;6242639;28;20069;-70
2023/06/11 14:14:57;;;;;;;7.05;2.63;;;43.80;22.70;;;;;;6242757;28;20037;-70
2023/06/11 14:17:57;;;;;;;3.22;2.58;;;43.80;22.70;;;;;;6241363;28;20374;-70
2023/06/11 14:20:58;;;;;;;3.67;2.50;;;43.70;22.70;;;;;;6242631;28;20057;-70
2023/06/11 14:24:00;;;;;;;3.53;2.60;;;43.50;22.60;;;;;;6241739;28;20034;-71
2023/06/11 14:27:01;;;;;;;2.63;2.20;;;43.10;22.90;;;;;;6240589;28;20026;-71
2023/06/11 14:30:03;;;;;;;8.38;2.55;;;43.50;22.90;;;;;;6240729;28;20437;-70
2023/06/11 14:33:04;;;;;;;3.28;2.50;;;44.20;22.20;;;;;;6241764;28;20370;-70
2023/06/11 14:36:06;;;;;;;2.75;2.35;;;44.50;21.70;;;;;;6242475;28;20033;-70
2023/06/11 14:39:06;;;;;;;3.58;2.65;;;44.50;21.60;;;;;;6241955;28;20049;-69
2023/06/11 14:42:08;;;;;;;3.15;2.85;;;44.20;21.70;;;;;;6241051;28;20086;-69
2023/06/11 14:45:09;;;;;;;3.67;2.60;;;44.00;21.90;;;;;;6242011;28;20059;-70
2023/06/11 14:48:10;;;;;;;2.90;2.60;;;43.80;21.80;;;;;;6240111;28;20041;-72
2023/06/11 14:51:11;;;;;;;4.03;2.60;;;43.70;21.90;;;;;;6223809;28;20036;-70
2023/06/11 14:54:12;;;;;;;2.65;2.45;;;43.60;22.20;;;;;;6239833;28;20025;-70
2023/06/11 14:57:18;;;;;;;4.20;2.30;;;43.60;22.10;;;;;;6241656;28;20059;-70
2023/06/11 15:00:19;;;;;;;2.97;2.58;;;43.60;22.10;;;;;;6241568;28;20025;-69
2023/06/11 15:03:20;;;;;;;4.55;2.10;;;43.40;22.30;;;;;;6241825;28;20369;-69
2023/06/11 15:06:21;;;;;;;8.18;2.33;;;43.10;22.30;;;;;;6241837;28;20127;-70
2023/06/11 15:09:22;;;;;;;3.85;2.42;;;42.90;22.40;;;;;;6239524;28;20057;-70
2023/06/11 15:12:23;;;;;;;4.20;2.30;;;42.70;22.70;;;;;;6240989;28;20025;-70
2023/06/11 15:15:24;;;;;;;2.80;2.38;;;42.40;22.90;;;;;;6239956;28;20486;-71
2023/06/11 15:18:25;;;;;;;3.70;2.38;;;41.20;23.70;;;;;;6239584;28;20064;-71
2023/06/11 15:21:25;;;;;;;4.55;2.53;;;39.80;25.00;;;;;;6239325;28;20116;-70
2023/06/11 15:24:26;;;;;;;3.72;2.33;;;38.50;26.40;;;;;;6240875;28;20033;-70
2023/06/11 15:27:27;;;;;;;2.63;2.35;;;37.40;27.60;;;;;;6240744;28;20033;-70
2023/06/11 15:30:28;;;;;;;6.03;2.63;;;36.40;29.00;;;;;;6240553;28;20032;-70
2023/06/11 15:33:30;;;;;;;3.83;2.65;;;35.50;30.00;;;;;;6240332;28;20033;-70
2023/06/11 15:36:31;;;;;;;3.67;2.58;;;34.60;31.10;;;;;;6240391;28;20112;-70
2023/06/11 15:39:32;;;;;;;7.45;2.28;;;33.80;32.90;;;;;;6240305;28;20254;-70
2023/06/11 15:42:35;;;;;;;4.18;2.80;;;33.10;34.00;;;;;;6240082;28;20084;-70
2023/06/11 15:45:35;;;;;;;5.97;2.63;;;32.40;34.90;;;;;;6240448;28;20044;-70
2023/06/11 15:48:36;;;;;;;8.00;2.22;;;31.80;35.80;;;;;;6240282;28;20029;-71